sensor_id;sensor_type;location;lat;lon;timestamp;temperature;humidity
65036;DHT22;51603;49.300;8.880;2022-10-16T00:01:46;15.30;99.90
65036;DHT22;51603;49.300;8.880;2022-10-16T00:04:12;15.30;99.90
65036;DHT22;51603;49.300;8.880;2022-10-16T00:06:38;15.30;99.90
65036;DHT22;51603;49.300;8.880;2022-10-16T00:09:04;15.30;99.90
65036;DHT22;51603;49.300;8.880;2022-10-16T00:11:33;15.30;99.90
65036;DHT22;51603;49.300;8.880;2022-10-16T00:14:00;15.30;99.90
65036;DHT22;51603;49.300;8.880;2022-10-16T00:16:28;15.30;99.90
65036;DHT22;51603;49.300;8.880;2022-10-16T00:18:54;15.30;99.90
65036;DHT22;51603;49.300;8.880;2022-10-16T00:21:23;15.30;99.90
65036;DHT22;51603;49.300;8.880;2022-10-16T00:23:54;15.30;99.90
65036;DHT22;51603;49.300;8.880;2022-10-16T00:26:20;15.30;99.90
65036;DHT22;51603;49.300;8.880;2022-10-16T00:28:47;15.30;99.90
65036;DHT22;51603;49.300;8.880;2022-10-16T00:31:13;15.30;99.90
65036;DHT22;51603;49.300;8.880;2022-10-16T00:33:39;15.30;99.90
65036;DHT22;51603;49.300;8.880;2022-10-16T00:36:07;15.30;99.90
65036;DHT22;51603;49.300;8.880;2022-10-16T00:38:33;15.40;99.90
65036;DHT22;51603;49.300;8.880;2022-10-16T00:40:59;15.40;99.90
65036;DHT22;51603;49.300;8.880;2022-10-16T00:46:21;15.50;99.90
65036;DHT22;51603;49.300;8.880;2022-10-16T00:49:12;15.50;99.90
65036;DHT22;51603;49.300;8.880;2022-10-16T00:51:43;15.40;99.90
65036;DHT22;51603;49.300;8.880;2022-10-16T00:54:24;15.40;99.90
65036;DHT22;51603;49.300;8.880;2022-10-16T00:56:51;15.30;99.90
65036;DHT22;51603;49.300;8.880;2022-10-16T00:59:19;15.30;99.90
65036;DHT22;51603;49.300;8.880;2022-10-16T01:01:45;15.30;99.90
65036;DHT22;51603;49.300;8.880;2022-10-16T01:04:10;15.30;99.90
65036;DHT22;51603;49.300;8.880;2022-10-16T01:07:06;15.30;99.90
65036;DHT22;51603;49.300;8.880;2022-10-16T01:09:45;15.30;99.90
65036;DHT22;51603;49.300;8.880;2022-10-16T01:12:19;15.30;99.90
65036;DHT22;51603;49.300;8.880;2022-10-16T01:14:58;15.30;99.90
65036;DHT22;51603;49.300;8.880;2022-10-16T01:23:10;15.30;99.90
65036;DHT22;51603;49.300;8.880;2022-10-16T01:25:59;15.30;99.90
65036;DHT22;51603;49.300;8.880;2022-10-16T01:28:36;15.20;99.90
65036;DHT22;51603;49.300;8.880;2022-10-16T01:31:04;15.30;99.90
65036;DHT22;51603;49.300;8.880;2022-10-16T01:33:40;15.30;99.90
65036;DHT22;51603;49.300;8.880;2022-10-16T01:36:12;15.20;99.90
65036;DHT22;51603;49.300;8.880;2022-10-16T01:38:39;15.30;99.90
65036;DHT22;51603;49.300;8.880;2022-10-16T01:41:15;15.30;99.90
65036;DHT22;51603;49.300;8.880;2022-10-16T01:43:46;15.30;99.90
65036;DHT22;51603;49.300;8.880;2022-10-16T01:46:16;15.30;99.90
65036;DHT22;51603;49.300;8.880;2022-10-16T01:48:43;15.30;99.90
65036;DHT22;51603;49.300;8.880;2022-10-16T01:51:12;15.30;99.90
65036;DHT22;51603;49.300;8.880;2022-10-16T01:53:39;15.30;99.90
65036;DHT22;51603;49.300;8.880;2022-10-16T01:56:09;15.40;99.90
65036;DHT22;51603;49.300;8.880;2022-10-16T01:58:40;15.40;99.90
65036;DHT22;51603;49.300;8.880;2022-10-16T02:01:08;15.40;99.90
65036;DHT22;51603;49.300;8.880;2022-10-16T02:03:37;15.40;99.90
65036;DHT22;51603;49.300;8.880;2022-10-16T02:06:06;15.40;99.90
65036;DHT22;51603;49.300;8.880;2022-10-16T02:08:32;15.30;99.90
65036;DHT22;51603;49.300;8.880;2022-10-16T02:10:59;15.40;99.90
65036;DHT22;51603;49.300;8.880;2022-10-16T02:13:36;15.40;99.90
65036;DHT22;51603;49.300;8.880;2022-10-16T02:16:03;15.40;99.90
65036;DHT22;51603;49.300;8.880;2022-10-16T02:18:29;15.40;99.90
65036;DHT22;51603;49.300;8.880;2022-10-16T02:23:33;15.30;99.90
65036;DHT22;51603;49.300;8.880;2022-10-16T02:26:03;15.30;99.90
65036;DHT22;51603;49.300;8.880;2022-10-16T02:28:51;15.30;99.90
65036;DHT22;51603;49.300;8.880;2022-10-16T02:31:23;15.40;99.90
65036;DHT22;51603;49.300;8.880;2022-10-16T02:33:51;15.30;99.90
65036;DHT22;51603;49.300;8.880;2022-10-16T02:36:18;15.30;99.90
65036;DHT22;51603;49.300;8.880;2022-10-16T02:38:43;15.30;99.90
65036;DHT22;51603;49.300;8.880;2022-10-16T02:41:10;15.30;99.90
65036;DHT22;51603;49.300;8.880;2022-10-16T02:43:35;15.30;99.90
65036;DHT22;51603;49.300;8.880;2022-10-16T02:46:01;15.30;99.90
65036;DHT22;51603;49.300;8.880;2022-10-16T02:48:27;15.30;99.90
65036;DHT22;51603;49.300;8.880;2022-10-16T02:50:52;15.30;99.90
65036;DHT22;51603;49.300;8.880;2022-10-16T02:53:18;15.30;99.90
65036;DHT22;51603;49.300;8.880;2022-10-16T02:55:43;15.30;99.90
65036;DHT22;51603;49.300;8.880;2022-10-16T02:58:09;15.30;99.90
65036;DHT22;51603;49.300;8.880;2022-10-16T03:00:34;15.30;99.90
65036;DHT22;51603;49.300;8.880;2022-10-16T03:03:00;15.30;99.90
65036;DHT22;51603;49.300;8.880;2022-10-16T03:05:25;15.20;99.90
65036;DHT22;51603;49.300;8.880;2022-10-16T03:07:51;15.20;99.90
65036;DHT22;51603;49.300;8.880;2022-10-16T03:10:17;15.20;99.90
65036;DHT22;51603;49.300;8.880;2022-10-16T03:12:43;15.20;99.90
65036;DHT22;51603;49.300;8.880;2022-10-16T03:15:09;15.20;99.90
65036;DHT22;51603;49.300;8.880;2022-10-16T03:17:35;15.20;99.90
65036;DHT22;51603;49.300;8.880;2022-10-16T03:20:00;15.20;99.90
65036;DHT22;51603;49.300;8.880;2022-10-16T03:22:26;15.30;99.90
65036;DHT22;51603;49.300;8.880;2022-10-16T03:24:51;15.20;99.90
65036;DHT22;51603;49.300;8.880;2022-10-16T03:27:17;15.20;99.90
65036;DHT22;51603;49.300;8.880;2022-10-16T03:29:42;15.20;99.90
65036;DHT22;51603;49.300;8.880;2022-10-16T03:32:08;15.20;99.90
65036;DHT22;51603;49.300;8.880;2022-10-16T03:34:33;15.20;99.90
65036;DHT22;51603;49.300;8.880;2022-10-16T03:36:59;15.30;99.90
65036;DHT22;51603;49.300;8.880;2022-10-16T03:39:24;15.30;99.90
65036;DHT22;51603;49.300;8.880;2022-10-16T03:41:50;15.30;99.90
65036;DHT22;51603;49.300;8.880;2022-10-16T03:44:15;15.30;99.90
65036;DHT22;51603;49.300;8.880;2022-10-16T03:46:41;15.20;99.90
65036;DHT22;51603;49.300;8.880;2022-10-16T03:49:06;15.20;99.90
65036;DHT22;51603;49.300;8.880;2022-10-16T03:51:32;15.20;99.90
65036;DHT22;51603;49.300;8.880;2022-10-16T03:53:58;15.20;99.90
65036;DHT22;51603;49.300;8.880;2022-10-16T03:56:23;15.20;99.90
65036;DHT22;51603;49.300;8.880;2022-10-16T03:58:49;15.20;99.90
65036;DHT22;51603;49.300;8.880;2022-10-16T04:01:15;15.20;99.90
65036;DHT22;51603;49.300;8.880;2022-10-16T04:03:40;15.20;99.90
65036;DHT22;51603;49.300;8.880;2022-10-16T04:06:06;15.10;99.90
65036;DHT22;51603;49.300;8.880;2022-10-16T04:08:31;15.10;99.90
65036;DHT22;51603;49.300;8.880;2022-10-16T04:11:00;15.10;99.90
65036;DHT22;51603;49.300;8.880;2022-10-16T04:13:26;15.10;99.90
65036;DHT22;51603;49.300;8.880;2022-10-16T04:15:51;15.10;99.90
65036;DHT22;51603;49.300;8.880;2022-10-16T04:18:17;15.10;99.90
65036;DHT22;51603;49.300;8.880;2022-10-16T04:20:42;15.10;99.90
65036;DHT22;51603;49.300;8.880;2022-10-16T04:23:08;15.10;99.90
65036;DHT22;51603;49.300;8.880;2022-10-16T04:25:33;15.10;99.90
65036;DHT22;51603;49.300;8.880;2022-10-16T04:27:59;15.10;99.90
65036;DHT22;51603;49.300;8.880;2022-10-16T04:30:24;15.10;99.90
65036;DHT22;51603;49.300;8.880;2022-10-16T04:32:51;15.10;99.90
65036;DHT22;51603;49.300;8.880;2022-10-16T04:35:18;15.10;99.90
65036;DHT22;51603;49.300;8.880;2022-10-16T04:37:44;15.10;99.90
65036;DHT22;51603;49.300;8.880;2022-10-16T04:40:10;15.10;99.90
65036;DHT22;51603;49.300;8.880;2022-10-16T04:42:36;15.10;99.90
65036;DHT22;51603;49.300;8.880;2022-10-16T04:45:02;15.10;99.90
65036;DHT22;51603;49.300;8.880;2022-10-16T04:47:27;15.00;99.90
65036;DHT22;51603;49.300;8.880;2022-10-16T04:49:53;15.10;99.90
65036;DHT22;51603;49.300;8.880;2022-10-16T04:52:19;15.10;99.90
65036;DHT22;51603;49.300;8.880;2022-10-16T04:54:46;15.10;99.90
65036;DHT22;51603;49.300;8.880;2022-10-16T04:57:12;15.10;99.90
65036;DHT22;51603;49.300;8.880;2022-10-16T04:59:37;15.10;99.90
65036;DHT22;51603;49.300;8.880;2022-10-16T05:02:03;15.10;99.90
65036;DHT22;51603;49.300;8.880;2022-10-16T05:04:28;15.10;99.90
65036;DHT22;51603;49.300;8.880;2022-10-16T05:06:54;15.10;99.90
65036;DHT22;51603;49.300;8.880;2022-10-16T05:09:19;15.00;99.90
65036;DHT22;51603;49.300;8.880;2022-10-16T05:11:45;15.00;99.90
65036;DHT22;51603;49.300;8.880;2022-10-16T05:14:11;15.00;99.90
65036;DHT22;51603;49.300;8.880;2022-10-16T05:16:36;14.90;99.90
65036;DHT22;51603;49.300;8.880;2022-10-16T05:19:02;14.90;99.90
65036;DHT22;51603;49.300;8.880;2022-10-16T05:21:27;14.90;99.90
65036;DHT22;51603;49.300;8.880;2022-10-16T05:23:53;14.90;99.90
65036;DHT22;51603;49.300;8.880;2022-10-16T05:26:19;14.90;99.90
65036;DHT22;51603;49.300;8.880;2022-10-16T05:28:45;14.90;99.90
65036;DHT22;51603;49.300;8.880;2022-10-16T05:31:11;14.90;99.90
65036;DHT22;51603;49.300;8.880;2022-10-16T05:33:37;14.90;99.90
65036;DHT22;51603;49.300;8.880;2022-10-16T05:36:04;14.90;99.90
65036;DHT22;51603;49.300;8.880;2022-10-16T05:38:30;14.80;99.90
65036;DHT22;51603;49.300;8.880;2022-10-16T05:40:55;14.90;99.90
65036;DHT22;51603;49.300;8.880;2022-10-16T05:43:21;14.90;99.90
65036;DHT22;51603;49.300;8.880;2022-10-16T05:46:16;14.90;99.90
65036;DHT22;51603;49.300;8.880;2022-10-16T05:48:42;14.90;99.90
65036;DHT22;51603;49.300;8.880;2022-10-16T05:51:10;14.90;99.90
65036;DHT22;51603;49.300;8.880;2022-10-16T05:53:37;14.90;99.90
65036;DHT22;51603;49.300;8.880;2022-10-16T05:56:04;14.90;99.90
65036;DHT22;51603;49.300;8.880;2022-10-16T05:58:31;14.90;99.90
65036;DHT22;51603;49.300;8.880;2022-10-16T06:01:32;14.80;99.90
65036;DHT22;51603;49.300;8.880;2022-10-16T06:03:52;14.80;99.90
65036;DHT22;51603;49.300;8.880;2022-10-16T06:06:20;14.80;99.90
65036;DHT22;51603;49.300;8.880;2022-10-16T06:08:47;14.80;99.90
65036;DHT22;51603;49.300;8.880;2022-10-16T06:11:16;14.80;99.90
65036;DHT22;51603;49.300;8.880;2022-10-16T06:13:42;14.80;99.90
65036;DHT22;51603;49.300;8.880;2022-10-16T06:16:08;14.80;99.90
65036;DHT22;51603;49.300;8.880;2022-10-16T06:18:34;14.80;99.90
65036;DHT22;51603;49.300;8.880;2022-10-16T06:21:06;14.90;99.90
65036;DHT22;51603;49.300;8.880;2022-10-16T06:23:32;14.80;99.90
65036;DHT22;51603;49.300;8.880;2022-10-16T06:26:07;14.90;99.90
65036;DHT22;51603;49.300;8.880;2022-10-16T06:28:33;14.90;99.90
65036;DHT22;51603;49.300;8.880;2022-10-16T06:31:00;14.90;99.90
65036;DHT22;51603;49.300;8.880;2022-10-16T06:33:26;14.90;99.90
65036;DHT22;51603;49.300;8.880;2022-10-16T06:35:51;14.90;99.90
65036;DHT22;51603;49.300;8.880;2022-10-16T06:38:17;14.90;99.90
65036;DHT22;51603;49.300;8.880;2022-10-16T06:40:42;14.90;99.90
65036;DHT22;51603;49.300;8.880;2022-10-16T06:43:08;14.90;99.90
65036;DHT22;51603;49.300;8.880;2022-10-16T06:45:33;14.90;99.90
65036;DHT22;51603;49.300;8.880;2022-10-16T06:47:59;14.90;99.90
65036;DHT22;51603;49.300;8.880;2022-10-16T06:50:24;14.90;99.90
65036;DHT22;51603;49.300;8.880;2022-10-16T06:52:50;14.90;99.90
65036;DHT22;51603;49.300;8.880;2022-10-16T06:55:16;15.00;99.90
65036;DHT22;51603;49.300;8.880;2022-10-16T06:57:42;15.00;99.90
65036;DHT22;51603;49.300;8.880;2022-10-16T07:00:09;15.00;99.90
65036;DHT22;51603;49.300;8.880;2022-10-16T07:02:35;15.00;99.90
65036;DHT22;51603;49.300;8.880;2022-10-16T07:05:00;15.00;99.90
65036;DHT22;51603;49.300;8.880;2022-10-16T07:07:26;15.00;99.90
65036;DHT22;51603;49.300;8.880;2022-10-16T07:09:52;15.00;99.90
65036;DHT22;51603;49.300;8.880;2022-10-16T07:12:17;15.10;99.90
65036;DHT22;51603;49.300;8.880;2022-10-16T07:14:43;15.10;99.90
65036;DHT22;51603;49.300;8.880;2022-10-16T07:17:08;15.10;99.90
65036;DHT22;51603;49.300;8.880;2022-10-16T07:19:34;15.20;99.90
65036;DHT22;51603;49.300;8.880;2022-10-16T07:22:00;15.20;99.90
65036;DHT22;51603;49.300;8.880;2022-10-16T07:24:25;15.30;99.90
65036;DHT22;51603;49.300;8.880;2022-10-16T07:26:51;15.30;99.90
65036;DHT22;51603;49.300;8.880;2022-10-16T07:29:19;15.30;99.90
65036;DHT22;51603;49.300;8.880;2022-10-16T07:31:46;15.30;99.90
65036;DHT22;51603;49.300;8.880;2022-10-16T07:34:12;15.40;99.90
65036;DHT22;51603;49.300;8.880;2022-10-16T07:36:38;15.40;99.90
65036;DHT22;51603;49.300;8.880;2022-10-16T07:39:04;15.50;99.90
65036;DHT22;51603;49.300;8.880;2022-10-16T07:41:30;15.50;99.90
65036;DHT22;51603;49.300;8.880;2022-10-16T07:43:57;15.60;99.90
65036;DHT22;51603;49.300;8.880;2022-10-16T07:46:25;15.70;99.90
65036;DHT22;51603;49.300;8.880;2022-10-16T07:48:51;15.80;99.90
65036;DHT22;51603;49.300;8.880;2022-10-16T07:51:19;15.80;99.90
65036;DHT22;51603;49.300;8.880;2022-10-16T07:53:45;15.80;99.90
65036;DHT22;51603;49.300;8.880;2022-10-16T07:56:12;15.80;99.90
65036;DHT22;51603;49.300;8.880;2022-10-16T07:58:38;15.80;99.90
65036;DHT22;51603;49.300;8.880;2022-10-16T08:01:06;15.90;99.90
65036;DHT22;51603;49.300;8.880;2022-10-16T08:03:32;15.90;99.90
65036;DHT22;51603;49.300;8.880;2022-10-16T08:05:58;16.00;99.90
65036;DHT22;51603;49.300;8.880;2022-10-16T08:08:24;16.10;99.90
65036;DHT22;51603;49.300;8.880;2022-10-16T08:10:50;16.20;99.90
65036;DHT22;51603;49.300;8.880;2022-10-16T08:13:15;16.20;99.90
65036;DHT22;51603;49.300;8.880;2022-10-16T08:15:42;16.20;99.90
65036;DHT22;51603;49.300;8.880;2022-10-16T08:18:09;16.30;99.90
65036;DHT22;51603;49.300;8.880;2022-10-16T08:20:35;16.30;99.90
65036;DHT22;51603;49.300;8.880;2022-10-16T08:23:01;16.40;99.90
65036;DHT22;51603;49.300;8.880;2022-10-16T08:25:27;16.40;99.90
65036;DHT22;51603;49.300;8.880;2022-10-16T08:27:52;16.40;99.90
65036;DHT22;51603;49.300;8.880;2022-10-16T08:30:19;16.50;99.90
65036;DHT22;51603;49.300;8.880;2022-10-16T08:32:45;16.60;99.90
65036;DHT22;51603;49.300;8.880;2022-10-16T08:35:11;16.70;99.90
65036;DHT22;51603;49.300;8.880;2022-10-16T08:37:37;16.80;99.90
65036;DHT22;51603;49.300;8.880;2022-10-16T08:40:05;16.80;99.90
65036;DHT22;51603;49.300;8.880;2022-10-16T08:43:04;16.90;99.90
65036;DHT22;51603;49.300;8.880;2022-10-16T08:45:48;16.90;99.90
65036;DHT22;51603;49.300;8.880;2022-10-16T08:48:21;16.90;99.90
65036;DHT22;51603;49.300;8.880;2022-10-16T08:50:52;17.00;99.90
65036;DHT22;51603;49.300;8.880;2022-10-16T08:53:35;16.90;99.90
65036;DHT22;51603;49.300;8.880;2022-10-16T08:56:01;17.00;99.90
65036;DHT22;51603;49.300;8.880;2022-10-16T08:58:29;17.00;99.90
65036;DHT22;51603;49.300;8.880;2022-10-16T09:01:01;17.10;99.90
65036;DHT22;51603;49.300;8.880;2022-10-16T09:12:00;17.20;99.90
65036;DHT22;51603;49.300;8.880;2022-10-16T09:15:20;17.30;99.90
65036;DHT22;51603;49.300;8.880;2022-10-16T09:22:35;17.40;99.90
65036;DHT22;51603;49.300;8.880;2022-10-16T09:25:11;17.50;99.90
65036;DHT22;51603;49.300;8.880;2022-10-16T09:27:37;17.50;99.90
65036;DHT22;51603;49.300;8.880;2022-10-16T09:30:17;17.60;99.90
65036;DHT22;51603;49.300;8.880;2022-10-16T09:32:45;17.60;99.90
65036;DHT22;51603;49.300;8.880;2022-10-16T09:35:21;17.60;99.90
65036;DHT22;51603;49.300;8.880;2022-10-16T09:37:50;17.70;99.90
65036;DHT22;51603;49.300;8.880;2022-10-16T09:40:37;17.70;99.90
65036;DHT22;51603;49.300;8.880;2022-10-16T09:45:52;17.70;99.90
65036;DHT22;51603;49.300;8.880;2022-10-16T09:48:19;17.80;99.90
65036;DHT22;51603;49.300;8.880;2022-10-16T09:50:56;18.00;99.90
65036;DHT22;51603;49.300;8.880;2022-10-16T09:53:21;18.10;99.90
65036;DHT22;51603;49.300;8.880;2022-10-16T09:55:49;18.20;99.90
65036;DHT22;51603;49.300;8.880;2022-10-16T09:58:15;18.50;99.90
65036;DHT22;51603;49.300;8.880;2022-10-16T10:00:42;18.80;99.90
65036;DHT22;51603;49.300;8.880;2022-10-16T10:05:55;19.20;99.90
65036;DHT22;51603;49.300;8.880;2022-10-16T10:08:21;19.60;99.90
65036;DHT22;51603;49.300;8.880;2022-10-16T10:10:48;19.90;99.90
65036;DHT22;51603;49.300;8.880;2022-10-16T10:13:22;20.00;99.90
65036;DHT22;51603;49.300;8.880;2022-10-16T10:15:50;20.20;99.90
65036;DHT22;51603;49.300;8.880;2022-10-16T10:18:20;20.50;99.90
65036;DHT22;51603;49.300;8.880;2022-10-16T10:20:57;20.50;99.90
65036;DHT22;51603;49.300;8.880;2022-10-16T10:23:25;20.60;99.90
65036;DHT22;51603;49.300;8.880;2022-10-16T10:29:02;20.40;99.90
65036;DHT22;51603;49.300;8.880;2022-10-16T10:31:42;20.30;99.90
65036;DHT22;51603;49.300;8.880;2022-10-16T10:37:26;20.10;99.90
65036;DHT22;51603;49.300;8.880;2022-10-16T10:40:28;20.30;99.90
65036;DHT22;51603;49.300;8.880;2022-10-16T10:43:15;20.40;99.90
65036;DHT22;51603;49.300;8.880;2022-10-16T10:45:46;20.60;99.90
65036;DHT22;51603;49.300;8.880;2022-10-16T10:50:57;20.70;99.90
65036;DHT22;51603;49.300;8.880;2022-10-16T10:53:51;20.80;99.90
65036;DHT22;51603;49.300;8.880;2022-10-16T10:56:41;20.80;99.90
65036;DHT22;51603;49.300;8.880;2022-10-16T10:59:32;20.90;99.90
65036;DHT22;51603;49.300;8.880;2022-10-16T11:04:51;21.00;99.90
65036;DHT22;51603;49.300;8.880;2022-10-16T11:07:27;21.40;99.90
65036;DHT22;51603;49.300;8.880;2022-10-16T11:09:58;21.50;99.90
65036;DHT22;51603;49.300;8.880;2022-10-16T11:12:34;21.50;99.90
65036;DHT22;51603;49.300;8.880;2022-10-16T11:15:14;21.30;99.90
65036;DHT22;51603;49.300;8.880;2022-10-16T11:17:48;21.40;99.90
65036;DHT22;51603;49.300;8.880;2022-10-16T11:20:24;21.40;99.90
65036;DHT22;51603;49.300;8.880;2022-10-16T11:22:58;21.70;99.90
65036;DHT22;51603;49.300;8.880;2022-10-16T11:25:32;21.60;99.90
65036;DHT22;51603;49.300;8.880;2022-10-16T11:31:14;21.60;99.90
65036;DHT22;51603;49.300;8.880;2022-10-16T11:33:45;21.40;99.90
65036;DHT22;51603;49.300;8.880;2022-10-16T11:36:19;21.50;99.90
65036;DHT22;51603;49.300;8.880;2022-10-16T11:39:25;21.60;99.90
65036;DHT22;51603;49.300;8.880;2022-10-16T11:42:08;21.70;99.90
65036;DHT22;51603;49.300;8.880;2022-10-16T11:44:55;21.80;99.90
65036;DHT22;51603;49.300;8.880;2022-10-16T11:47:35;21.90;99.90
65036;DHT22;51603;49.300;8.880;2022-10-16T11:50:13;22.10;99.90
65036;DHT22;51603;49.300;8.880;2022-10-16T11:52:56;22.20;99.90
65036;DHT22;51603;49.300;8.880;2022-10-16T12:00:47;22.00;99.90
65036;DHT22;51603;49.300;8.880;2022-10-16T12:08:34;21.60;99.90
65036;DHT22;51603;49.300;8.880;2022-10-16T12:13:45;21.50;99.90
65036;DHT22;51603;49.300;8.880;2022-10-16T12:18:40;21.60;99.90
65036;DHT22;51603;49.300;8.880;2022-10-16T12:21:07;21.40;99.90
65036;DHT22;51603;49.300;8.880;2022-10-16T12:23:54;21.40;99.90
65036;DHT22;51603;49.300;8.880;2022-10-16T12:26:39;21.30;99.90
65036;DHT22;51603;49.300;8.880;2022-10-16T12:29:14;21.20;99.90
65036;DHT22;51603;49.300;8.880;2022-10-16T12:31:47;21.10;99.90
65036;DHT22;51603;49.300;8.880;2022-10-16T12:39:39;21.00;99.90
65036;DHT22;51603;49.300;8.880;2022-10-16T12:42:20;21.00;99.90
65036;DHT22;51603;49.300;8.880;2022-10-16T12:44:46;21.10;99.90
65036;DHT22;51603;49.300;8.880;2022-10-16T12:47:46;21.10;99.90
65036;DHT22;51603;49.300;8.880;2022-10-16T12:50:38;21.20;99.90
65036;DHT22;51603;49.300;8.880;2022-10-16T12:53:19;21.30;99.90
65036;DHT22;51603;49.300;8.880;2022-10-16T12:58:54;21.60;99.90
65036;DHT22;51603;49.300;8.880;2022-10-16T13:04:37;21.70;99.90
65036;DHT22;51603;49.300;8.880;2022-10-16T13:07:25;21.70;99.90
65036;DHT22;51603;49.300;8.880;2022-10-16T13:13:10;21.50;99.90
65036;DHT22;51603;49.300;8.880;2022-10-16T13:18:33;21.20;99.90
65036;DHT22;51603;49.300;8.880;2022-10-16T13:24:08;21.10;99.90
65036;DHT22;51603;49.300;8.880;2022-10-16T13:29:10;21.00;99.90
65036;DHT22;51603;49.300;8.880;2022-10-16T13:31:37;20.90;99.90
65036;DHT22;51603;49.300;8.880;2022-10-16T13:34:05;20.90;99.90
65036;DHT22;51603;49.300;8.880;2022-10-16T13:36:46;20.90;99.90
65036;DHT22;51603;49.300;8.880;2022-10-16T13:39:25;20.80;99.90
65036;DHT22;51603;49.300;8.880;2022-10-16T13:42:10;20.80;99.90
65036;DHT22;51603;49.300;8.880;2022-10-16T13:44:50;20.70;99.90
65036;DHT22;51603;49.300;8.880;2022-10-16T13:47:21;20.60;99.90
65036;DHT22;51603;49.300;8.880;2022-10-16T13:50:03;20.60;99.90
65036;DHT22;51603;49.300;8.880;2022-10-16T13:52:29;20.50;99.90
65036;DHT22;51603;49.300;8.880;2022-10-16T13:54:54;20.50;99.90
65036;DHT22;51603;49.300;8.880;2022-10-16T13:57:25;20.40;99.90
65036;DHT22;51603;49.300;8.880;2022-10-16T13:59:51;20.40;99.90
65036;DHT22;51603;49.300;8.880;2022-10-16T14:02:27;20.30;99.90
65036;DHT22;51603;49.300;8.880;2022-10-16T14:04:54;20.30;99.90
65036;DHT22;51603;49.300;8.880;2022-10-16T14:07:29;20.20;99.90
65036;DHT22;51603;49.300;8.880;2022-10-16T14:10:01;20.10;99.90
65036;DHT22;51603;49.300;8.880;2022-10-16T14:12:27;20.00;99.90
65036;DHT22;51603;49.300;8.880;2022-10-16T14:14:53;20.00;99.90
65036;DHT22;51603;49.300;8.880;2022-10-16T14:17:27;19.90;99.90
65036;DHT22;51603;49.300;8.880;2022-10-16T14:19:59;19.80;99.90
65036;DHT22;51603;49.300;8.880;2022-10-16T14:22:39;19.70;99.90
65036;DHT22;51603;49.300;8.880;2022-10-16T14:25:24;19.70;99.90
65036;DHT22;51603;49.300;8.880;2022-10-16T14:30:24;19.60;99.90
65036;DHT22;51603;49.300;8.880;2022-10-16T14:32:57;19.50;99.90
65036;DHT22;51603;49.300;8.880;2022-10-16T14:35:26;19.50;99.90
65036;DHT22;51603;49.300;8.880;2022-10-16T14:37:54;19.40;99.90
65036;DHT22;51603;49.300;8.880;2022-10-16T14:40:24;19.30;99.90
65036;DHT22;51603;49.300;8.880;2022-10-16T14:42:51;19.30;99.90
65036;DHT22;51603;49.300;8.880;2022-10-16T14:45:21;19.30;99.90
65036;DHT22;51603;49.300;8.880;2022-10-16T14:47:51;19.20;99.90
65036;DHT22;51603;49.300;8.880;2022-10-16T14:50:18;19.10;99.90
65036;DHT22;51603;49.300;8.880;2022-10-16T14:52:44;19.10;99.90
65036;DHT22;51603;49.300;8.880;2022-10-16T14:55:10;19.00;99.90
65036;DHT22;51603;49.300;8.880;2022-10-16T14:57:37;19.00;99.90
65036;DHT22;51603;49.300;8.880;2022-10-16T15:00:18;19.00;99.90
65036;DHT22;51603;49.300;8.880;2022-10-16T15:02:45;18.90;99.90
65036;DHT22;51603;49.300;8.880;2022-10-16T15:07:42;18.90;99.90
65036;DHT22;51603;49.300;8.880;2022-10-16T15:10:08;18.90;99.90
65036;DHT22;51603;49.300;8.880;2022-10-16T15:12:33;18.90;99.90
65036;DHT22;51603;49.300;8.880;2022-10-16T15:14:58;19.00;99.90
65036;DHT22;51603;49.300;8.880;2022-10-16T15:17:24;19.30;99.90
65036;DHT22;51603;49.300;8.880;2022-10-16T15:19:49;19.50;99.90
65036;DHT22;51603;49.300;8.880;2022-10-16T15:22:16;19.60;99.90
65036;DHT22;51603;49.300;8.880;2022-10-16T15:24:42;19.70;99.90
65036;DHT22;51603;49.300;8.880;2022-10-16T15:27:08;19.80;99.90
65036;DHT22;51603;49.300;8.880;2022-10-16T15:29:33;19.90;99.90
65036;DHT22;51603;49.300;8.880;2022-10-16T15:31:59;19.90;99.90
65036;DHT22;51603;49.300;8.880;2022-10-16T15:34:24;19.80;99.90
65036;DHT22;51603;49.300;8.880;2022-10-16T15:36:50;19.80;99.90
65036;DHT22;51603;49.300;8.880;2022-10-16T15:39:18;19.70;99.90
65036;DHT22;51603;49.300;8.880;2022-10-16T15:41:48;19.50;99.90
65036;DHT22;51603;49.300;8.880;2022-10-16T15:44:18;19.40;99.90
65036;DHT22;51603;49.300;8.880;2022-10-16T15:46:44;19.30;99.90
65036;DHT22;51603;49.300;8.880;2022-10-16T15:49:10;19.20;99.90
65036;DHT22;51603;49.300;8.880;2022-10-16T15:51:38;19.10;99.90
65036;DHT22;51603;49.300;8.880;2022-10-16T15:54:04;18.90;99.90
65036;DHT22;51603;49.300;8.880;2022-10-16T15:56:30;18.80;99.90
65036;DHT22;51603;49.300;8.880;2022-10-16T15:58:59;18.70;99.90
65036;DHT22;51603;49.300;8.880;2022-10-16T16:01:25;18.60;99.90
65036;DHT22;51603;49.300;8.880;2022-10-16T16:03:55;18.60;99.90
65036;DHT22;51603;49.300;8.880;2022-10-16T16:06:21;18.50;99.90
65036;DHT22;51603;49.300;8.880;2022-10-16T16:08:49;18.40;99.90
65036;DHT22;51603;49.300;8.880;2022-10-16T16:11:16;18.40;99.90
65036;DHT22;51603;49.300;8.880;2022-10-16T16:13:42;18.40;99.90
65036;DHT22;51603;49.300;8.880;2022-10-16T16:16:09;18.30;99.90
65036;DHT22;51603;49.300;8.880;2022-10-16T16:18:35;18.30;99.90
65036;DHT22;51603;49.300;8.880;2022-10-16T16:21:01;18.20;99.90
65036;DHT22;51603;49.300;8.880;2022-10-16T16:23:26;18.10;99.90
65036;DHT22;51603;49.300;8.880;2022-10-16T16:28:37;18.00;99.90
65036;DHT22;51603;49.300;8.880;2022-10-16T16:31:03;17.90;99.90
65036;DHT22;51603;49.300;8.880;2022-10-16T16:33:29;17.80;99.90
65036;DHT22;51603;49.300;8.880;2022-10-16T16:35:59;17.70;99.90
65036;DHT22;51603;49.300;8.880;2022-10-16T16:38:26;17.60;99.90
65036;DHT22;51603;49.300;8.880;2022-10-16T16:40:51;17.60;99.90
65036;DHT22;51603;49.300;8.880;2022-10-16T16:43:17;17.50;99.90
65036;DHT22;51603;49.300;8.880;2022-10-16T16:45:43;17.40;99.90
65036;DHT22;51603;49.300;8.880;2022-10-16T16:48:08;17.30;99.90
65036;DHT22;51603;49.300;8.880;2022-10-16T16:50:37;17.30;99.90
65036;DHT22;51603;49.300;8.880;2022-10-16T16:53:03;17.20;99.90
65036;DHT22;51603;49.300;8.880;2022-10-16T16:55:29;17.10;99.90
65036;DHT22;51603;49.300;8.880;2022-10-16T16:57:55;17.10;99.90
65036;DHT22;51603;49.300;8.880;2022-10-16T17:00:22;17.00;99.90
65036;DHT22;51603;49.300;8.880;2022-10-16T17:02:51;16.90;99.90
65036;DHT22;51603;49.300;8.880;2022-10-16T17:05:17;16.90;99.90
65036;DHT22;51603;49.300;8.880;2022-10-16T17:07:43;16.80;99.90
65036;DHT22;51603;49.300;8.880;2022-10-16T17:10:09;16.80;99.90
65036;DHT22;51603;49.300;8.880;2022-10-16T17:12:35;16.60;99.90
65036;DHT22;51603;49.300;8.880;2022-10-16T17:15:00;16.60;99.90
65036;DHT22;51603;49.300;8.880;2022-10-16T17:17:26;16.60;99.90